createdAt,value
2018-08-25T00:01:34.916Z,18.30
2018-08-25T00:04:03.130Z,18.30
2018-08-25T00:06:31.264Z,18.20
2018-08-25T00:08:59.398Z,18.20
2018-08-25T00:11:27.574Z,18.20
2018-08-25T00:13:55.713Z,18.20
2018-08-25T00:16:24.416Z,18.20
2018-08-25T00:18:52.766Z,18.20
2018-08-25T00:21:20.914Z,18.20
2018-08-25T00:23:49.127Z,18.20
2018-08-25T00:26:17.336Z,18.10
2018-08-25T00:28:45.578Z,18.10
2018-08-25T00:31:19.268Z,18.10
2018-08-25T00:33:47.400Z,18.10
2018-08-25T00:36:16.758Z,18.10
2018-08-25T00:38:44.905Z,18.10
2018-08-25T00:41:13.174Z,18.10
2018-08-25T00:43:41.280Z,18.10
2018-08-25T00:46:09.431Z,18.10
2018-08-25T00:48:38.783Z,18.10
2018-08-25T00:51:06.963Z,18.10
2018-08-25T00:53:35.616Z,18.10
2018-08-25T00:56:03.787Z,18.10
2018-08-25T00:58:31.930Z,18.10
2018-08-25T01:01:00.317Z,18.10
2018-08-25T01:03:29.805Z,18.10
2018-08-25T01:05:57.941Z,18.00
2018-08-25T01:08:26.075Z,18.00
2018-08-25T01:10:54.298Z,18.00
2018-08-25T01:13:22.418Z,18.00
2018-08-25T01:15:51.715Z,17.90
2018-08-25T01:18:19.830Z,17.90
2018-08-25T01:20:48.428Z,17.80
2018-08-25T01:23:16.574Z,17.70
2018-08-25T01:25:44.744Z,17.70
2018-08-25T01:28:13.446Z,17.70
2018-08-25T01:30:41.622Z,17.60
2018-08-25T01:33:09.708Z,17.60
2018-08-25T01:35:37.866Z,17.50
2018-08-25T01:38:06.260Z,17.50
2018-08-25T01:40:35.620Z,17.40
2018-08-25T01:43:03.832Z,17.40
2018-08-25T01:45:32.252Z,17.40
2018-08-25T01:48:00.376Z,17.30
2018-08-25T01:50:28.726Z,17.30
2018-08-25T01:52:56.898Z,17.20
2018-08-25T01:55:25.100Z,17.20
2018-08-25T01:57:53.418Z,17.10
2018-08-25T02:00:21.540Z,17.00
2018-08-25T02:02:50.125Z,16.90
2018-08-25T02:05:18.244Z,16.90
2018-08-25T02:07:46.352Z,16.90
2018-08-25T02:10:14.563Z,16.90
2018-08-25T02:12:42.697Z,16.90
2018-08-25T02:15:10.957Z,16.80
2018-08-25T02:17:39.132Z,16.80
2018-08-25T02:20:07.408Z,16.80
2018-08-25T02:22:35.547Z,16.70
2018-08-25T02:25:04.385Z,16.80
2018-08-25T02:27:34.094Z,16.80
2018-08-25T02:30:02.417Z,16.70
2018-08-25T02:32:30.546Z,16.70
2018-08-25T02:34:58.826Z,16.70
2018-08-25T02:37:27.001Z,16.70
2018-08-25T02:39:55.081Z,16.70
2018-08-25T02:42:23.222Z,16.70
2018-08-25T02:44:51.543Z,16.80
2018-08-25T02:47:19.796Z,16.80
2018-08-25T02:49:47.968Z,16.90
2018-08-25T02:52:16.107Z,16.90
2018-08-25T02:54:44.411Z,16.90
2018-08-25T02:57:12.550Z,16.90
2018-08-25T02:59:40.675Z,17.00
2018-08-25T03:02:09.454Z,17.00
2018-08-25T03:04:37.584Z,17.00
2018-08-25T03:07:05.712Z,17.10
2018-08-25T03:09:33.830Z,17.10
2018-08-25T03:12:02.115Z,17.20
2018-08-25T03:14:30.256Z,17.20
2018-08-25T03:16:58.408Z,17.20
2018-08-25T03:19:26.560Z,17.20
2018-08-25T03:21:54.716Z,17.20
2018-08-25T03:24:24.262Z,17.20
2018-08-25T03:26:52.416Z,17.20
2018-08-25T03:29:20.546Z,17.20
2018-08-25T03:31:48.678Z,17.10
2018-08-25T03:34:16.878Z,17.10
2018-08-25T03:36:45.183Z,17.10
2018-08-25T03:39:13.482Z,17.10
2018-08-25T03:41:41.658Z,17.10
2018-08-25T03:44:10.822Z,17.10
2018-08-25T03:46:39.074Z,17.10
2018-08-25T03:49:07.351Z,17.10
2018-08-25T03:51:35.582Z,17.10
2018-08-25T03:54:03.768Z,17.10
2018-08-25T03:56:32.025Z,17.10
2018-08-25T03:59:00.868Z,17.10
2018-08-25T04:01:29.040Z,17.10
2018-08-25T04:03:58.340Z,17.10
2018-08-25T04:06:26.486Z,17.10
2018-08-25T04:08:55.575Z,17.00
2018-08-25T04:11:23.710Z,17.00
2018-08-25T04:13:51.819Z,17.00
2018-08-25T04:16:20.218Z,17.00
2018-08-25T04:18:48.362Z,17.00
2018-08-25T04:21:16.485Z,17.00
2018-08-25T04:23:44.725Z,17.00
2018-08-25T04:26:12.870Z,17.00
2018-08-25T04:28:41.000Z,17.00
2018-08-25T04:31:09.121Z,17.10
2018-08-25T04:33:37.305Z,17.10
2018-08-25T04:36:05.778Z,17.10
2018-08-25T04:38:34.023Z,17.10
2018-08-25T04:41:02.120Z,17.20
2018-08-25T04:43:30.294Z,17.20
2018-08-25T04:45:58.422Z,17.20
2018-08-25T04:48:26.546Z,17.20
2018-08-25T04:50:54.661Z,17.20
2018-08-25T04:53:22.836Z,17.20
2018-08-25T04:55:52.588Z,17.20
2018-08-25T04:58:21.798Z,17.20
2018-08-25T05:00:49.920Z,17.10
2018-08-25T05:03:24.685Z,17.20
2018-08-25T05:05:52.813Z,17.20
2018-08-25T05:08:20.988Z,17.20
2018-08-25T05:10:49.224Z,17.20
2018-08-25T05:13:17.504Z,17.20
2018-08-25T05:15:45.733Z,17.30
2018-08-25T05:18:13.993Z,17.30
2018-08-25T05:20:42.172Z,17.40
2018-08-25T05:23:10.548Z,17.40
2018-08-25T05:25:38.724Z,17.50
2018-08-25T05:28:06.960Z,17.40
2018-08-25T05:30:35.181Z,17.40
2018-08-25T05:33:03.397Z,17.50
2018-08-25T05:35:31.686Z,17.50
2018-08-25T05:38:00.170Z,17.50
2018-08-25T05:40:29.542Z,17.50
2018-08-25T05:42:59.212Z,17.60
2018-08-25T05:45:27.366Z,17.70
2018-08-25T05:47:56.993Z,17.70
2018-08-25T05:50:25.192Z,17.80
2018-08-25T05:52:53.880Z,17.90
2018-08-25T05:55:22.018Z,17.90
2018-08-25T05:57:50.480Z,18.00
2018-08-25T06:00:22.217Z,18.10
2018-08-25T06:02:50.516Z,18.20
2018-08-25T06:05:19.361Z,18.20
2018-08-25T06:07:48.017Z,18.20
2018-08-25T06:10:18.923Z,18.30
2018-08-25T06:12:48.968Z,18.50
2018-08-25T06:15:17.177Z,18.60
2018-08-25T06:17:45.481Z,18.70
2018-08-25T06:20:13.735Z,18.90
2018-08-25T06:22:41.900Z,19.10
2018-08-25T06:25:10.544Z,19.20
2018-08-25T06:27:38.732Z,19.30
2018-08-25T06:30:07.002Z,19.40
2018-08-25T06:32:35.137Z,19.40
2018-08-25T06:35:03.622Z,19.50
2018-08-25T06:37:31.798Z,19.50
2018-08-25T06:39:59.940Z,19.60
2018-08-25T06:42:28.177Z,19.60
2018-08-25T06:44:57.484Z,19.60
2018-08-25T06:47:25.586Z,19.50
2018-08-25T06:49:53.726Z,19.50
2018-08-25T06:52:22.088Z,19.50
2018-08-25T06:54:50.795Z,19.60
2018-08-25T06:57:18.950Z,19.70
2018-08-25T06:59:47.174Z,19.90
2018-08-25T07:02:15.339Z,20.10
2018-08-25T07:04:44.825Z,20.20
2018-08-25T07:07:12.960Z,20.20
2018-08-25T07:09:41.817Z,20.40
2018-08-25T07:12:09.958Z,20.50
2018-08-25T07:14:38.064Z,20.70
2018-08-25T07:17:06.280Z,20.90
2018-08-25T07:19:34.422Z,21.00
2018-08-25T07:22:02.584Z,21.00
2018-08-25T07:24:30.847Z,21.00
2018-08-25T07:26:58.922Z,20.90
2018-08-25T07:29:27.038Z,21.00
2018-08-25T07:31:55.210Z,20.90
2018-08-25T07:34:23.638Z,20.90
2018-08-25T07:36:51.798Z,20.90
2018-08-25T07:39:20.044Z,21.00
2018-08-25T07:41:48.446Z,21.00
2018-08-25T07:44:16.590Z,21.00
2018-08-25T07:46:44.801Z,21.10
2018-08-25T07:49:14.690Z,21.10
2018-08-25T07:51:43.021Z,21.10
2018-08-25T07:54:11.138Z,21.00
2018-08-25T07:56:39.298Z,21.00
2018-08-25T07:59:07.509Z,21.20
2018-08-25T08:01:35.675Z,21.30
2018-08-25T08:04:03.830Z,21.40
2018-08-25T08:06:32.407Z,21.50
2018-08-25T08:09:00.978Z,21.50
2018-08-25T08:11:29.465Z,21.40
2018-08-25T08:13:58.828Z,21.40
2018-08-25T08:16:26.980Z,21.30
2018-08-25T08:18:55.108Z,21.40
2018-08-25T08:21:23.230Z,21.40
2018-08-25T08:23:51.390Z,21.40
2018-08-25T08:26:19.576Z,21.50
2018-08-25T08:28:47.853Z,21.60
2018-08-25T08:31:16.154Z,21.80
2018-08-25T08:33:44.306Z,21.90
2018-08-25T08:36:12.462Z,21.90
2018-08-25T08:38:40.641Z,21.90
2018-08-25T08:41:08.769Z,22.00
2018-08-25T08:43:36.994Z,22.10
2018-08-25T08:46:06.459Z,22.20
2018-08-25T08:48:34.567Z,22.30
2018-08-25T08:51:03.944Z,22.40
2018-08-25T08:53:32.139Z,22.40
2018-08-25T08:56:00.289Z,22.30
2018-08-25T08:58:28.428Z,22.20
2018-08-25T09:00:56.588Z,22.20
2018-08-25T09:03:24.954Z,22.20
2018-08-25T09:05:53.266Z,22.30
2018-08-25T09:08:21.368Z,22.20
2018-08-25T09:10:50.112Z,22.10
2018-08-25T09:13:18.318Z,22.10
2018-08-25T09:15:46.462Z,22.00
2018-08-25T09:18:14.703Z,22.00
2018-08-25T09:20:44.670Z,22.00
2018-08-25T09:23:12.796Z,22.20
2018-08-25T09:25:41.094Z,22.40
2018-08-25T09:28:09.351Z,22.40
2018-08-25T09:30:37.551Z,22.50
2018-08-25T09:33:05.793Z,22.60
2018-08-25T09:35:35.354Z,22.50
2018-08-25T09:38:03.675Z,22.50
2018-08-25T09:40:32.470Z,22.40
2018-08-25T09:43:00.768Z,22.60
2018-08-25T09:45:29.990Z,22.60
2018-08-25T09:47:58.185Z,22.70
2018-08-25T09:50:26.358Z,22.90
2018-08-25T09:52:54.771Z,23.10
2018-08-25T09:55:24.206Z,23.30
2018-08-25T09:57:55.082Z,23.40
2018-08-25T10:00:24.043Z,23.40
2018-08-25T10:02:53.242Z,23.40
2018-08-25T10:05:21.337Z,23.50
2018-08-25T10:07:50.374Z,23.70
2018-08-25T10:10:18.500Z,23.80
2018-08-25T10:12:46.683Z,23.70
2018-08-25T10:15:15.634Z,23.60
2018-08-25T10:17:43.870Z,23.60
2018-08-25T10:20:12.167Z,23.70
2018-08-25T10:22:40.522Z,23.70
2018-08-25T10:25:09.894Z,23.80
2018-08-25T10:27:38.123Z,23.70
2018-08-25T10:30:07.328Z,23.70
2018-08-25T10:32:35.530Z,23.70
2018-08-25T10:35:03.669Z,23.90
2018-08-25T10:37:31.900Z,24.10
2018-08-25T10:40:00.142Z,24.30
2018-08-25T10:42:29.278Z,24.60
2018-08-25T10:44:57.428Z,24.90
2018-08-25T10:47:26.418Z,25.00
2018-08-25T10:49:54.555Z,25.00
2018-08-25T10:52:22.772Z,25.00
2018-08-25T10:54:51.025Z,25.00
2018-08-25T10:57:19.181Z,25.00
2018-08-25T10:59:47.446Z,24.90
2018-08-25T11:02:24.471Z,24.80
2018-08-25T11:04:52.833Z,24.60
2018-08-25T11:07:21.915Z,24.30
2018-08-25T11:09:50.095Z,24.00
2018-08-25T11:12:18.419Z,23.90
2018-08-25T11:14:46.608Z,23.70
2018-08-25T11:17:14.987Z,23.60
2018-08-25T11:19:43.144Z,23.40
2018-08-25T11:22:11.331Z,23.20
2018-08-25T11:24:39.511Z,23.20
2018-08-25T11:27:08.471Z,23.00
2018-08-25T11:29:36.639Z,22.90
2018-08-25T11:32:07.891Z,22.80
2018-08-25T11:34:36.127Z,22.80
2018-08-25T11:37:04.496Z,22.90
2018-08-25T11:39:32.820Z,23.00
2018-08-25T11:42:01.068Z,23.20
2018-08-25T11:44:29.209Z,23.50
2018-08-25T11:46:57.445Z,23.90
2018-08-25T11:49:25.663Z,24.40
2018-08-25T11:51:53.902Z,24.60
2018-08-25T11:54:22.049Z,24.60
2018-08-25T11:56:50.245Z,24.60
2018-08-25T11:59:18.434Z,24.60
2018-08-25T12:01:46.646Z,24.70
2018-08-25T12:04:14.790Z,24.80
2018-08-25T12:06:42.930Z,24.80
2018-08-25T12:09:13.341Z,24.90
2018-08-25T12:11:41.648Z,24.80
2018-08-25T12:14:10.072Z,25.00
2018-08-25T12:16:38.380Z,25.10
2018-08-25T12:19:07.700Z,24.80
2018-08-25T12:21:35.821Z,24.40
2018-08-25T12:24:04.051Z,24.00
2018-08-25T12:26:33.259Z,23.70
2018-08-25T12:29:01.551Z,23.50
2018-08-25T12:31:30.219Z,23.30
2018-08-25T12:33:58.445Z,23.10
2018-08-25T12:36:26.539Z,23.00
2018-08-25T12:38:54.690Z,23.20
2018-08-25T12:41:22.875Z,23.20
2018-08-25T12:43:51.042Z,23.20
2018-08-25T12:46:20.203Z,23.00
2018-08-25T12:48:48.442Z,22.80
2018-08-25T12:51:16.591Z,22.70
2018-08-25T12:53:44.785Z,22.60
2018-08-25T12:56:13.138Z,22.50
2018-08-25T12:58:41.341Z,22.40
2018-08-25T13:01:09.461Z,22.30
2018-08-25T13:03:37.544Z,22.10
2018-08-25T13:06:05.708Z,21.90
2018-08-25T13:08:33.823Z,21.70
2018-08-25T13:11:02.482Z,21.50
2018-08-25T13:13:31.255Z,21.20
2018-08-25T13:15:59.427Z,20.90
2018-08-25T13:18:27.590Z,20.70
2018-08-25T13:20:55.787Z,20.70
2018-08-25T13:23:24.050Z,20.70
2018-08-25T13:25:52.170Z,20.80
2018-08-25T13:28:20.319Z,20.90
2018-08-25T13:30:48.767Z,20.90
2018-08-25T13:33:16.916Z,20.80
2018-08-25T13:35:45.195Z,20.70
2018-08-25T13:38:13.347Z,20.60
2018-08-25T13:40:41.703Z,20.60
2018-08-25T13:43:09.907Z,20.40
2018-08-25T13:45:38.076Z,20.20
2018-08-25T13:48:06.350Z,20.10
2018-08-25T13:50:35.139Z,19.90
2018-08-25T13:53:04.320Z,19.80
2018-08-25T13:55:32.440Z,19.80
2018-08-25T13:58:01.491Z,19.80
2018-08-25T14:00:29.696Z,19.80
2018-08-25T14:02:58.762Z,19.90
2018-08-25T14:05:27.224Z,20.00
2018-08-25T14:07:55.423Z,20.00
2018-08-25T14:10:23.612Z,20.00
2018-08-25T14:12:51.803Z,20.10
2018-08-25T14:15:19.993Z,20.20
2018-08-25T14:17:48.223Z,20.30
2018-08-25T14:20:16.500Z,20.50
2018-08-25T14:22:44.650Z,20.70
2018-08-25T14:25:12.790Z,20.70
2018-08-25T14:27:40.878Z,20.60
2018-08-25T14:30:09.032Z,20.40
2018-08-25T14:32:37.893Z,20.30
2018-08-25T14:35:06.050Z,20.20
2018-08-25T14:37:34.827Z,20.20
2018-08-25T14:40:02.974Z,20.30
2018-08-25T14:42:31.094Z,20.40
2018-08-25T14:44:59.221Z,20.20
2018-08-25T14:47:27.328Z,20.20
2018-08-25T14:49:56.007Z,20.20
2018-08-25T14:52:24.255Z,20.30
2018-08-25T14:54:53.281Z,20.40
2018-08-25T14:57:21.576Z,20.50
2018-08-25T14:59:49.734Z,20.70
2018-08-25T15:02:18.443Z,20.90
2018-08-25T15:04:46.617Z,21.10
2018-08-25T15:07:14.903Z,21.20
2018-08-25T15:09:43.159Z,21.30
2018-08-25T15:12:11.599Z,21.30
2018-08-25T15:14:39.733Z,21.30
2018-08-25T15:17:08.553Z,21.20
2018-08-25T15:19:36.762Z,21.00
2018-08-25T15:22:05.815Z,20.90
2018-08-25T15:24:33.946Z,20.70
2018-08-25T15:27:02.085Z,20.60
2018-08-25T15:29:30.364Z,20.50
2018-08-25T15:31:58.590Z,20.40
2018-08-25T15:34:26.714Z,20.30
2018-08-25T15:36:54.859Z,20.30
2018-08-25T15:39:23.134Z,20.20
2018-08-25T15:41:51.416Z,20.20
2018-08-25T15:44:20.248Z,20.20
2018-08-25T15:46:48.637Z,20.10
2018-08-25T15:49:16.755Z,20.10
2018-08-25T15:51:45.080Z,20.00
2018-08-25T15:54:14.887Z,20.10
2018-08-25T15:56:43.124Z,20.20
2018-08-25T15:59:11.654Z,20.20
2018-08-25T16:01:41.465Z,20.10
2018-08-25T16:04:09.535Z,20.00
2018-08-25T16:06:37.700Z,19.90
2018-08-25T16:09:08.085Z,19.90
2018-08-25T16:11:37.760Z,19.80
2018-08-25T16:14:05.946Z,19.90
2018-08-25T16:16:34.054Z,19.90
2018-08-25T16:19:02.150Z,20.00
2018-08-25T16:21:30.312Z,20.00
2018-08-25T16:23:58.699Z,19.90
2018-08-25T16:26:26.955Z,19.90
2018-08-25T16:28:55.351Z,19.70
2018-08-25T16:31:23.739Z,19.50
2018-08-25T16:33:51.943Z,19.30
2018-08-25T16:36:20.241Z,19.20
2018-08-25T16:38:48.573Z,19.10
2018-08-25T16:41:16.697Z,19.00
2018-08-25T16:43:44.847Z,19.00
2018-08-25T16:46:13.051Z,18.90
2018-08-25T16:48:41.269Z,18.90
2018-08-25T16:51:09.437Z,18.90
2018-08-25T16:53:37.783Z,18.80
2018-08-25T16:56:06.712Z,18.70
2018-08-25T16:58:36.217Z,18.60
2018-08-25T17:01:06.459Z,18.50
2018-08-25T17:03:34.620Z,18.30
2018-08-25T17:06:03.921Z,18.30
2018-08-25T17:08:33.008Z,18.20
2018-08-25T17:11:01.180Z,18.20
2018-08-25T17:13:29.417Z,18.20
2018-08-25T17:15:57.556Z,18.20
2018-08-25T17:18:25.848Z,18.20
2018-08-25T17:20:54.103Z,18.20
2018-08-25T17:23:22.411Z,18.10
2018-08-25T17:25:50.619Z,18.10
2018-08-25T17:28:18.756Z,17.90
2018-08-25T17:30:47.073Z,17.90
2018-08-25T17:33:15.335Z,17.80
2018-08-25T17:35:43.555Z,17.80
2018-08-25T17:38:11.835Z,17.70
2018-08-25T17:40:40.011Z,17.70
2018-08-25T17:43:08.409Z,17.60
2018-08-25T17:45:36.628Z,17.60
2018-08-25T17:48:05.939Z,17.60
2018-08-25T17:50:34.046Z,17.50
2018-08-25T17:53:02.319Z,17.50
2018-08-25T17:55:30.519Z,17.40
2018-08-25T17:57:58.780Z,17.40
2018-08-25T18:00:27.031Z,17.30
2018-08-25T18:02:55.250Z,17.30
2018-08-25T18:05:23.622Z,17.20
2018-08-25T18:07:51.798Z,17.20
2018-08-25T18:10:20.121Z,17.10
2018-08-25T18:12:48.395Z,17.10
2018-08-25T18:15:16.557Z,17.00
2018-08-25T18:17:44.763Z,16.90
2018-08-25T18:20:13.103Z,16.90
2018-08-25T18:22:41.247Z,16.80
2018-08-25T18:25:09.463Z,16.80
2018-08-25T18:27:38.453Z,16.80
2018-08-25T18:30:06.804Z,16.70
2018-08-25T18:32:35.171Z,16.60
2018-08-25T18:35:03.345Z,16.60
2018-08-25T18:37:31.593Z,16.50
2018-08-25T18:39:59.807Z,16.50
2018-08-25T18:42:28.139Z,16.50
2018-08-25T18:44:56.517Z,16.40
2018-08-25T18:47:24.662Z,16.40
2018-08-25T18:49:52.894Z,16.40
2018-08-25T18:52:21.159Z,16.40
2018-08-25T18:54:49.399Z,16.40
2018-08-25T18:57:18.471Z,16.30
2018-08-25T18:59:46.863Z,16.20
2018-08-25T19:02:15.499Z,16.20
2018-08-25T19:04:43.441Z,16.20
2018-08-25T19:07:12.316Z,16.30
2018-08-25T19:09:40.506Z,16.20
2018-08-25T19:12:08.636Z,16.20
2018-08-25T19:14:36.783Z,16.20
2018-08-25T19:17:05.039Z,16.20
2018-08-25T19:19:34.071Z,16.10
2018-08-25T19:22:02.217Z,16.10
2018-08-25T19:24:31.652Z,16.10
2018-08-25T19:26:59.810Z,16.00
2018-08-25T19:29:28.037Z,16.00
2018-08-25T19:31:56.131Z,16.00
2018-08-25T19:34:24.269Z,16.00
2018-08-25T19:36:52.471Z,15.90
2018-08-25T19:39:21.337Z,15.90
2018-08-25T19:41:49.509Z,15.90
2018-08-25T19:44:17.668Z,15.90
2018-08-25T19:46:46.819Z,15.80
2018-08-25T19:49:15.540Z,15.80
2018-08-25T19:51:43.695Z,15.80
2018-08-25T19:54:11.889Z,15.80
2018-08-25T19:56:40.128Z,15.70
2018-08-25T19:59:09.469Z,15.70
2018-08-25T20:01:38.120Z,15.70
2018-08-25T20:04:07.673Z,15.60
2018-08-25T20:06:35.857Z,15.60
2018-08-25T20:09:06.472Z,15.60
2018-08-25T20:11:34.710Z,15.50
2018-08-25T20:14:03.055Z,15.50
2018-08-25T20:16:31.408Z,15.50
2018-08-25T20:19:00.057Z,15.50
2018-08-25T20:21:29.229Z,15.40
2018-08-25T20:23:57.353Z,15.40
2018-08-25T20:26:25.530Z,15.50
2018-08-25T20:28:54.319Z,15.40
2018-08-25T20:31:22.460Z,15.40
2018-08-25T20:33:52.933Z,15.40
2018-08-25T20:36:21.174Z,15.30
2018-08-25T20:38:49.307Z,15.30
2018-08-25T20:41:17.671Z,15.30
2018-08-25T20:43:45.825Z,15.20
2018-08-25T20:46:14.166Z,15.20
2018-08-25T20:48:42.323Z,15.20
2018-08-25T20:51:10.617Z,15.20
2018-08-25T20:53:38.927Z,15.20
2018-08-25T20:56:07.208Z,15.20
2018-08-25T20:58:35.349Z,15.20
2018-08-25T21:01:03.720Z,15.20
2018-08-25T21:03:31.869Z,15.20
2018-08-25T21:06:00.097Z,15.20
2018-08-25T21:08:29.462Z,15.20
2018-08-25T21:10:57.641Z,15.20
2018-08-25T21:13:25.890Z,15.10
2018-08-25T21:15:54.184Z,15.10
2018-08-25T21:18:22.263Z,15.10
2018-08-25T21:20:50.625Z,15.00
2018-08-25T21:23:19.020Z,15.00
2018-08-25T21:25:47.216Z,15.00
2018-08-25T21:28:15.623Z,14.90
2018-08-25T21:30:44.439Z,14.90
2018-08-25T21:33:12.708Z,14.90
2018-08-25T21:35:40.911Z,14.90
2018-08-25T21:38:09.415Z,14.80
2018-08-25T21:40:37.706Z,14.80
2018-08-25T21:43:06.327Z,14.80
2018-08-25T21:45:34.465Z,14.80
2018-08-25T21:48:02.802Z,14.70
2018-08-25T21:50:30.934Z,14.70
2018-08-25T21:52:59.083Z,14.70
2018-08-25T21:55:27.182Z,14.60
2018-08-25T21:57:56.247Z,14.60
2018-08-25T22:00:24.484Z,14.60
2018-08-25T22:02:54.197Z,14.60
2018-08-25T22:05:22.353Z,14.60
2018-08-25T22:07:50.507Z,14.60
2018-08-25T22:10:18.669Z,14.50
2018-08-25T22:12:46.936Z,14.50
2018-08-25T22:15:15.052Z,14.50
2018-08-25T22:17:43.184Z,14.50
2018-08-25T22:20:11.339Z,14.50
2018-08-25T22:22:41.047Z,14.50
2018-08-25T22:25:09.232Z,14.50
2018-08-25T22:27:38.961Z,14.40
2018-08-25T22:30:07.396Z,14.40
2018-08-25T22:32:35.523Z,14.40
2018-08-25T22:35:03.788Z,14.30
2018-08-25T22:37:32.116Z,14.30
2018-08-25T22:40:00.337Z,14.20
2018-08-25T22:42:28.631Z,14.20
2018-08-25T22:44:56.888Z,14.20
2018-08-25T22:47:25.059Z,14.20
2018-08-25T22:49:53.231Z,14.20
2018-08-25T22:52:28.358Z,14.10
2018-08-25T22:54:56.635Z,14.10
2018-08-25T22:57:24.955Z,14.10
2018-08-25T22:59:54.339Z,14.10
2018-08-25T23:02:23.975Z,14.10
2018-08-25T23:04:52.109Z,14.00
2018-08-25T23:07:20.240Z,14.00
2018-08-25T23:09:48.391Z,14.00
2018-08-25T23:12:16.527Z,14.00
2018-08-25T23:14:44.925Z,14.00
2018-08-25T23:17:13.132Z,14.00
2018-08-25T23:19:41.238Z,14.00
2018-08-25T23:22:09.427Z,14.00
2018-08-25T23:24:37.551Z,14.00
2018-08-25T23:27:05.807Z,14.00
2018-08-25T23:29:34.109Z,13.90
2018-08-25T23:32:02.314Z,13.90
2018-08-25T23:34:30.514Z,13.90
2018-08-25T23:36:59.285Z,13.90
2018-08-25T23:39:27.425Z,13.90
2018-08-25T23:41:55.565Z,13.90
2018-08-25T23:44:23.702Z,13.80
2018-08-25T23:46:51.838Z,13.80
2018-08-25T23:49:20.004Z,13.80
2018-08-25T23:51:49.761Z,13.80
2018-08-25T23:54:18.643Z,13.70
2018-08-25T23:56:46.803Z,13.70
2018-08-25T23:59:15.485Z,13.70
